sensor_id;sensor_type;location;lat;lon;timestamp;P1;durP1;ratioP1;P2;durP2;ratioP2
19554;SDS011;9924;50.828;6.440;2023-05-10T00:01:54;22.50;;;13.50;;
19554;SDS011;9924;50.828;6.440;2023-05-10T00:04:39;24.05;;;13.35;;
19554;SDS011;9924;50.828;6.440;2023-05-10T00:07:23;23.30;;;13.95;;
19554;SDS011;9924;50.828;6.440;2023-05-10T00:10:08;22.70;;;14.57;;
19554;SDS011;9924;50.828;6.440;2023-05-10T00:12:54;22.40;;;13.57;;
19554;SDS011;9924;50.828;6.440;2023-05-10T00:15:40;23.30;;;13.93;;
19554;SDS011;9924;50.828;6.440;2023-05-10T00:18:25;23.80;;;14.75;;
19554;SDS011;9924;50.828;6.440;2023-05-10T00:21:10;23.05;;;13.82;;
19554;SDS011;9924;50.828;6.440;2023-05-10T00:23:55;20.63;;;12.98;;
19554;SDS011;9924;50.828;6.440;2023-05-10T00:26:41;23.45;;;13.73;;
19554;SDS011;9924;50.828;6.440;2023-05-10T00:29:27;20.35;;;12.25;;
19554;SDS011;9924;50.828;6.440;2023-05-10T00:32:12;20.40;;;11.20;;
19554;SDS011;9924;50.828;6.440;2023-05-10T00:34:57;19.70;;;11.43;;
19554;SDS011;9924;50.828;6.440;2023-05-10T00:37:42;18.48;;;10.57;;
19554;SDS011;9924;50.828;6.440;2023-05-10T00:40:28;18.92;;;9.93;;
19554;SDS011;9924;50.828;6.440;2023-05-10T00:43:16;16.88;;;9.98;;
19554;SDS011;9924;50.828;6.440;2023-05-10T00:46:01;18.60;;;9.98;;
19554;SDS011;9924;50.828;6.440;2023-05-10T00:48:46;20.25;;;10.90;;
19554;SDS011;9924;50.828;6.440;2023-05-10T00:51:32;20.10;;;11.70;;
19554;SDS011;9924;50.828;6.440;2023-05-10T00:54:16;19.02;;;11.00;;
19554;SDS011;9924;50.828;6.440;2023-05-10T00:57:04;20.25;;;10.98;;
19554;SDS011;9924;50.828;6.440;2023-05-10T00:59:48;19.98;;;10.77;;
19554;SDS011;9924;50.828;6.440;2023-05-10T01:02:34;22.58;;;11.00;;
19554;SDS011;9924;50.828;6.440;2023-05-10T01:05:19;17.45;;;10.27;;
19554;SDS011;9924;50.828;6.440;2023-05-10T01:08:05;18.05;;;9.77;;
19554;SDS011;9924;50.828;6.440;2023-05-10T01:10:52;19.05;;;10.43;;
19554;SDS011;9924;50.828;6.440;2023-05-10T01:13:41;15.38;;;8.95;;
19554;SDS011;9924;50.828;6.440;2023-05-10T01:16:27;16.85;;;8.65;;
19554;SDS011;9924;50.828;6.440;2023-05-10T01:22:11;17.55;;;10.23;;
19554;SDS011;9924;50.828;6.440;2023-05-10T01:34:16;27.83;;;14.25;;
19554;SDS011;9924;50.828;6.440;2023-05-10T01:37:06;32.22;;;17.08;;
19554;SDS011;9924;50.828;6.440;2023-05-10T01:42:46;32.58;;;17.17;;
19554;SDS011;9924;50.828;6.440;2023-05-10T01:46:02;33.78;;;17.10;;
19554;SDS011;9924;50.828;6.440;2023-05-10T01:48:55;37.85;;;17.95;;
19554;SDS011;9924;50.828;6.440;2023-05-10T01:51:44;35.35;;;17.17;;
19554;SDS011;9924;50.828;6.440;2023-05-10T01:54:33;32.13;;;18.58;;
19554;SDS011;9924;50.828;6.440;2023-05-10T01:57:19;34.60;;;17.40;;
19554;SDS011;9924;50.828;6.440;2023-05-10T02:00:10;34.20;;;17.77;;
19554;SDS011;9924;50.828;6.440;2023-05-10T02:02:57;32.50;;;17.25;;
19554;SDS011;9924;50.828;6.440;2023-05-10T02:05:44;32.95;;;16.98;;
19554;SDS011;9924;50.828;6.440;2023-05-10T02:08:32;28.75;;;16.10;;
19554;SDS011;9924;50.828;6.440;2023-05-10T02:11:20;29.70;;;15.88;;
19554;SDS011;9924;50.828;6.440;2023-05-10T02:14:07;30.48;;;16.20;;
19554;SDS011;9924;50.828;6.440;2023-05-10T02:16:54;28.73;;;16.77;;
19554;SDS011;9924;50.828;6.440;2023-05-10T02:19:40;28.70;;;15.45;;
19554;SDS011;9924;50.828;6.440;2023-05-10T02:22:27;27.75;;;16.25;;
19554;SDS011;9924;50.828;6.440;2023-05-10T02:25:13;29.20;;;15.45;;
19554;SDS011;9924;50.828;6.440;2023-05-10T02:27:59;29.83;;;17.02;;
19554;SDS011;9924;50.828;6.440;2023-05-10T02:30:46;28.52;;;15.10;;
19554;SDS011;9924;50.828;6.440;2023-05-10T02:33:31;29.52;;;16.55;;
19554;SDS011;9924;50.828;6.440;2023-05-10T02:36:18;31.30;;;16.83;;
19554;SDS011;9924;50.828;6.440;2023-05-10T02:39:07;34.42;;;16.70;;
19554;SDS011;9924;50.828;6.440;2023-05-10T02:41:56;28.20;;;15.73;;
19554;SDS011;9924;50.828;6.440;2023-05-10T02:44:42;27.77;;;15.93;;
19554;SDS011;9924;50.828;6.440;2023-05-10T02:47:29;26.70;;;15.25;;
19554;SDS011;9924;50.828;6.440;2023-05-10T02:50:14;30.58;;;17.98;;
19554;SDS011;9924;50.828;6.440;2023-05-10T02:53:03;29.08;;;15.82;;
19554;SDS011;9924;50.828;6.440;2023-05-10T02:55:59;27.20;;;16.25;;
19554;SDS011;9924;50.828;6.440;2023-05-10T02:58:48;27.83;;;16.20;;
19554;SDS011;9924;50.828;6.440;2023-05-10T03:01:42;24.42;;;13.90;;
19554;SDS011;9924;50.828;6.440;2023-05-10T03:04:27;25.05;;;15.07;;
19554;SDS011;9924;50.828;6.440;2023-05-10T03:07:12;24.95;;;14.30;;
19554;SDS011;9924;50.828;6.440;2023-05-10T03:09:57;26.08;;;13.00;;
19554;SDS011;9924;50.828;6.440;2023-05-10T03:13:01;24.52;;;13.98;;
19554;SDS011;9924;50.828;6.440;2023-05-10T03:16:10;23.55;;;13.55;;
19554;SDS011;9924;50.828;6.440;2023-05-10T03:19:06;18.98;;;13.07;;
19554;SDS011;9924;50.828;6.440;2023-05-10T03:22:03;23.17;;;13.27;;
19554;SDS011;9924;50.828;6.440;2023-05-10T03:24:55;22.88;;;13.05;;
19554;SDS011;9924;50.828;6.440;2023-05-10T03:27:42;20.77;;;13.07;;
19554;SDS011;9924;50.828;6.440;2023-05-10T03:30:28;19.45;;;12.52;;
19554;SDS011;9924;50.828;6.440;2023-05-10T03:33:14;22.60;;;13.10;;
19554;SDS011;9924;50.828;6.440;2023-05-10T03:35:59;24.30;;;14.10;;
19554;SDS011;9924;50.828;6.440;2023-05-10T03:38:44;23.92;;;14.40;;
19554;SDS011;9924;50.828;6.440;2023-05-10T03:41:30;26.58;;;14.25;;
19554;SDS011;9924;50.828;6.440;2023-05-10T03:44:15;25.88;;;15.15;;
19554;SDS011;9924;50.828;6.440;2023-05-10T03:47:00;22.48;;;14.13;;
19554;SDS011;9924;50.828;6.440;2023-05-10T03:49:44;27.60;;;16.42;;
19554;SDS011;9924;50.828;6.440;2023-05-10T03:52:30;29.25;;;16.17;;
19554;SDS011;9924;50.828;6.440;2023-05-10T03:55:15;29.00;;;15.43;;
19554;SDS011;9924;50.828;6.440;2023-05-10T03:58:01;32.13;;;15.90;;
19554;SDS011;9924;50.828;6.440;2023-05-10T04:00:45;27.02;;;16.08;;
19554;SDS011;9924;50.828;6.440;2023-05-10T04:03:30;32.38;;;16.60;;
19554;SDS011;9924;50.828;6.440;2023-05-10T04:06:15;30.42;;;17.38;;
19554;SDS011;9924;50.828;6.440;2023-05-10T04:09:12;33.42;;;16.55;;
19554;SDS011;9924;50.828;6.440;2023-05-10T04:11:58;38.65;;;17.67;;
19554;SDS011;9924;50.828;6.440;2023-05-10T04:14:45;29.83;;;16.20;;
19554;SDS011;9924;50.828;6.440;2023-05-10T04:17:31;32.40;;;15.63;;
19554;SDS011;9924;50.828;6.440;2023-05-10T04:20:16;33.67;;;16.98;;
19554;SDS011;9924;50.828;6.440;2023-05-10T04:23:00;28.10;;;17.25;;
19554;SDS011;9924;50.828;6.440;2023-05-10T04:25:45;32.92;;;17.23;;
19554;SDS011;9924;50.828;6.440;2023-05-10T04:28:30;30.52;;;18.10;;
19554;SDS011;9924;50.828;6.440;2023-05-10T04:31:21;31.90;;;17.60;;
19554;SDS011;9924;50.828;6.440;2023-05-10T04:34:07;36.53;;;18.05;;
19554;SDS011;9924;50.828;6.440;2023-05-10T04:36:52;32.45;;;18.10;;
19554;SDS011;9924;50.828;6.440;2023-05-10T04:39:36;33.55;;;18.38;;
19554;SDS011;9924;50.828;6.440;2023-05-10T04:42:22;32.30;;;17.42;;
19554;SDS011;9924;50.828;6.440;2023-05-10T04:45:07;27.17;;;15.98;;
19554;SDS011;9924;50.828;6.440;2023-05-10T04:47:53;32.00;;;15.13;;
19554;SDS011;9924;50.828;6.440;2023-05-10T04:50:43;27.73;;;15.23;;
19554;SDS011;9924;50.828;6.440;2023-05-10T04:53:29;29.05;;;15.57;;
19554;SDS011;9924;50.828;6.440;2023-05-10T04:56:13;25.33;;;14.35;;
19554;SDS011;9924;50.828;6.440;2023-05-10T04:58:59;23.15;;;13.13;;
19554;SDS011;9924;50.828;6.440;2023-05-10T05:01:44;23.60;;;12.52;;
19554;SDS011;9924;50.828;6.440;2023-05-10T05:04:30;24.27;;;12.57;;
19554;SDS011;9924;50.828;6.440;2023-05-10T05:07:15;20.65;;;11.93;;
19554;SDS011;9924;50.828;6.440;2023-05-10T05:10:00;25.25;;;11.88;;
19554;SDS011;9924;50.828;6.440;2023-05-10T05:12:45;22.05;;;11.90;;
19554;SDS011;9924;50.828;6.440;2023-05-10T05:15:30;25.25;;;12.52;;
19554;SDS011;9924;50.828;6.440;2023-05-10T05:18:15;21.90;;;11.90;;
19554;SDS011;9924;50.828;6.440;2023-05-10T05:20:59;26.88;;;11.63;;
19554;SDS011;9924;50.828;6.440;2023-05-10T05:23:44;25.58;;;11.27;;
19554;SDS011;9924;50.828;6.440;2023-05-10T05:26:30;19.80;;;10.88;;
19554;SDS011;9924;50.828;6.440;2023-05-10T05:29:14;23.63;;;10.45;;
19554;SDS011;9924;50.828;6.440;2023-05-10T05:32:00;23.00;;;10.75;;
19554;SDS011;9924;50.828;6.440;2023-05-10T05:34:45;19.05;;;10.32;;
19554;SDS011;9924;50.828;6.440;2023-05-10T05:37:30;20.42;;;10.68;;
19554;SDS011;9924;50.828;6.440;2023-05-10T05:40:15;22.05;;;10.32;;
19554;SDS011;9924;50.828;6.440;2023-05-10T05:43:00;21.65;;;10.50;;
19554;SDS011;9924;50.828;6.440;2023-05-10T05:45:45;22.83;;;10.18;;
19554;SDS011;9924;50.828;6.440;2023-05-10T05:48:41;23.10;;;11.18;;
19554;SDS011;9924;50.828;6.440;2023-05-10T05:51:25;21.00;;;10.43;;
19554;SDS011;9924;50.828;6.440;2023-05-10T05:54:11;21.70;;;11.15;;
19554;SDS011;9924;50.828;6.440;2023-05-10T05:56:57;28.17;;;11.88;;
19554;SDS011;9924;50.828;6.440;2023-05-10T05:59:42;21.98;;;11.20;;
19554;SDS011;9924;50.828;6.440;2023-05-10T06:02:27;27.58;;;10.85;;
19554;SDS011;9924;50.828;6.440;2023-05-10T06:05:12;26.40;;;9.88;;
19554;SDS011;9924;50.828;6.440;2023-05-10T06:07:59;26.17;;;10.73;;
19554;SDS011;9924;50.828;6.440;2023-05-10T06:10:45;23.02;;;9.18;;
19554;SDS011;9924;50.828;6.440;2023-05-10T06:13:32;32.00;;;10.88;;
19554;SDS011;9924;50.828;6.440;2023-05-10T06:16:21;23.13;;;10.82;;
19554;SDS011;9924;50.828;6.440;2023-05-10T06:19:06;21.90;;;10.23;;
19554;SDS011;9924;50.828;6.440;2023-05-10T06:21:51;28.63;;;10.38;;
19554;SDS011;9924;50.828;6.440;2023-05-10T06:24:39;21.73;;;9.90;;
19554;SDS011;9924;50.828;6.440;2023-05-10T06:27:25;23.50;;;10.25;;
19554;SDS011;9924;50.828;6.440;2023-05-10T06:30:10;23.90;;;10.75;;
19554;SDS011;9924;50.828;6.440;2023-05-10T06:32:57;21.27;;;10.98;;
19554;SDS011;9924;50.828;6.440;2023-05-10T06:35:43;25.30;;;11.18;;
19554;SDS011;9924;50.828;6.440;2023-05-10T06:38:32;20.27;;;10.40;;
19554;SDS011;9924;50.828;6.440;2023-05-10T06:41:20;18.95;;;9.98;;
19554;SDS011;9924;50.828;6.440;2023-05-10T06:44:05;17.15;;;9.02;;
19554;SDS011;9924;50.828;6.440;2023-05-10T06:46:49;14.65;;;7.80;;
19554;SDS011;9924;50.828;6.440;2023-05-10T06:49:36;14.48;;;6.03;;
19554;SDS011;9924;50.828;6.440;2023-05-10T06:52:20;14.43;;;6.30;;
19554;SDS011;9924;50.828;6.440;2023-05-10T06:55:06;10.13;;;4.30;;
19554;SDS011;9924;50.828;6.440;2023-05-10T06:57:52;6.68;;;3.60;;
19554;SDS011;9924;50.828;6.440;2023-05-10T07:00:39;7.30;;;3.38;;
19554;SDS011;9924;50.828;6.440;2023-05-10T07:03:26;7.18;;;3.85;;
19554;SDS011;9924;50.828;6.440;2023-05-10T07:06:12;7.38;;;3.53;;
19554;SDS011;9924;50.828;6.440;2023-05-10T07:08:56;7.00;;;3.20;;
19554;SDS011;9924;50.828;6.440;2023-05-10T07:11:41;4.70;;;2.60;;
19554;SDS011;9924;50.828;6.440;2023-05-10T07:14:26;3.40;;;2.30;;
19554;SDS011;9924;50.828;6.440;2023-05-10T07:17:11;3.88;;;2.20;;
19554;SDS011;9924;50.828;6.440;2023-05-10T07:20:02;3.15;;;2.00;;
19554;SDS011;9924;50.828;6.440;2023-05-10T07:22:47;1.90;;;1.00;;
19554;SDS011;9924;50.828;6.440;2023-05-10T07:25:31;1.13;;;0.88;;
19554;SDS011;9924;50.828;6.440;2023-05-10T07:28:19;3.58;;;0.75;;
19554;SDS011;9924;50.828;6.440;2023-05-10T07:31:04;1.20;;;0.82;;
19554;SDS011;9924;50.828;6.440;2023-05-10T07:33:50;0.73;;;0.70;;
19554;SDS011;9924;50.828;6.440;2023-05-10T07:36:35;0.70;;;0.55;;
19554;SDS011;9924;50.828;6.440;2023-05-10T07:39:20;3.17;;;0.80;;
19554;SDS011;9924;50.828;6.440;2023-05-10T07:42:07;1.35;;;0.80;;
19554;SDS011;9924;50.828;6.440;2023-05-10T07:44:52;3.10;;;1.02;;
19554;SDS011;9924;50.828;6.440;2023-05-10T07:47:37;1.40;;;1.02;;
19554;SDS011;9924;50.828;6.440;2023-05-10T07:50:22;1.92;;;1.00;;
19554;SDS011;9924;50.828;6.440;2023-05-10T07:53:06;3.30;;;1.50;;
19554;SDS011;9924;50.828;6.440;2023-05-10T07:55:52;5.28;;;2.75;;
19554;SDS011;9924;50.828;6.440;2023-05-10T07:58:41;2.45;;;1.40;;
19554;SDS011;9924;50.828;6.440;2023-05-10T08:01:26;1.95;;;1.48;;
19554;SDS011;9924;50.828;6.440;2023-05-10T08:04:17;1.73;;;1.58;;
19554;SDS011;9924;50.828;6.440;2023-05-10T08:07:01;2.85;;;1.65;;
19554;SDS011;9924;50.828;6.440;2023-05-10T08:09:46;2.42;;;1.75;;
19554;SDS011;9924;50.828;6.440;2023-05-10T08:12:31;3.17;;;1.77;;
19554;SDS011;9924;50.828;6.440;2023-05-10T08:15:16;3.28;;;2.40;;
19554;SDS011;9924;50.828;6.440;2023-05-10T08:18:04;6.20;;;2.83;;
19554;SDS011;9924;50.828;6.440;2023-05-10T08:20:49;7.90;;;4.03;;
19554;SDS011;9924;50.828;6.440;2023-05-10T08:23:34;6.90;;;3.83;;
19554;SDS011;9924;50.828;6.440;2023-05-10T08:26:19;8.27;;;4.68;;
19554;SDS011;9924;50.828;6.440;2023-05-10T08:29:05;9.90;;;4.90;;
19554;SDS011;9924;50.828;6.440;2023-05-10T08:31:49;21.27;;;9.65;;
19554;SDS011;9924;50.828;6.440;2023-05-10T08:34:36;22.08;;;11.35;;
19554;SDS011;9924;50.828;6.440;2023-05-10T08:37:22;18.85;;;10.48;;
19554;SDS011;9924;50.828;6.440;2023-05-10T08:40:08;20.75;;;11.32;;
19554;SDS011;9924;50.828;6.440;2023-05-10T08:43:13;23.05;;;11.10;;
19554;SDS011;9924;50.828;6.440;2023-05-10T08:46:01;20.90;;;10.95;;
19554;SDS011;9924;50.828;6.440;2023-05-10T08:48:48;22.13;;;11.05;;
19554;SDS011;9924;50.828;6.440;2023-05-10T08:51:35;23.75;;;12.07;;
19554;SDS011;9924;50.828;6.440;2023-05-10T08:54:24;24.95;;;11.30;;
19554;SDS011;9924;50.828;6.440;2023-05-10T08:57:12;25.05;;;12.35;;
19554;SDS011;9924;50.828;6.440;2023-05-10T08:59:57;32.75;;;14.48;;
19554;SDS011;9924;50.828;6.440;2023-05-10T09:02:44;25.67;;;13.23;;
19554;SDS011;9924;50.828;6.440;2023-05-10T09:05:30;24.75;;;12.43;;
19554;SDS011;9924;50.828;6.440;2023-05-10T09:08:15;17.80;;;8.90;;
19554;SDS011;9924;50.828;6.440;2023-05-10T09:11:01;17.33;;;9.43;;
19554;SDS011;9924;50.828;6.440;2023-05-10T09:13:47;16.00;;;8.02;;
19554;SDS011;9924;50.828;6.440;2023-05-10T09:16:33;9.93;;;5.68;;
19554;SDS011;9924;50.828;6.440;2023-05-10T09:19:18;5.45;;;3.97;;
19554;SDS011;9924;50.828;6.440;2023-05-10T09:22:03;6.20;;;3.92;;
19554;SDS011;9924;50.828;6.440;2023-05-10T09:25:02;5.00;;;2.72;;
19554;SDS011;9924;50.828;6.440;2023-05-10T09:27:48;4.50;;;3.28;;
19554;SDS011;9924;50.828;6.440;2023-05-10T09:30:33;3.72;;;2.33;;
19554;SDS011;9924;50.828;6.440;2023-05-10T09:33:18;2.83;;;2.08;;
19554;SDS011;9924;50.828;6.440;2023-05-10T09:36:07;2.78;;;2.13;;
19554;SDS011;9924;50.828;6.440;2023-05-10T09:38:52;3.53;;;1.80;;
19554;SDS011;9924;50.828;6.440;2023-05-10T09:41:38;3.13;;;2.25;;
19554;SDS011;9924;50.828;6.440;2023-05-10T09:44:30;4.32;;;2.75;;
19554;SDS011;9924;50.828;6.440;2023-05-10T09:47:19;4.55;;;2.58;;
19554;SDS011;9924;50.828;6.440;2023-05-10T09:50:04;1.85;;;1.45;;
19554;SDS011;9924;50.828;6.440;2023-05-10T09:52:50;1.30;;;1.13;;
19554;SDS011;9924;50.828;6.440;2023-05-10T09:55:42;2.03;;;1.60;;
19554;SDS011;9924;50.828;6.440;2023-05-10T09:58:29;2.05;;;1.60;;
19554;SDS011;9924;50.828;6.440;2023-05-10T10:01:14;3.70;;;1.52;;
19554;SDS011;9924;50.828;6.440;2023-05-10T10:03:59;3.17;;;2.22;;
19554;SDS011;9924;50.828;6.440;2023-05-10T10:07:00;2.15;;;1.77;;
19554;SDS011;9924;50.828;6.440;2023-05-10T10:09:48;3.45;;;1.70;;
19554;SDS011;9924;50.828;6.440;2023-05-10T10:12:33;1.83;;;1.65;;
19554;SDS011;9924;50.828;6.440;2023-05-10T10:15:22;2.65;;;1.90;;
19554;SDS011;9924;50.828;6.440;2023-05-10T10:18:07;4.65;;;1.85;;
19554;SDS011;9924;50.828;6.440;2023-05-10T10:20:56;3.63;;;2.00;;
19554;SDS011;9924;50.828;6.440;2023-05-10T10:23:42;2.05;;;1.50;;
19554;SDS011;9924;50.828;6.440;2023-05-10T10:26:28;1.60;;;1.50;;
19554;SDS011;9924;50.828;6.440;2023-05-10T10:35:22;1.40;;;1.30;;
19554;SDS011;9924;50.828;6.440;2023-05-10T10:38:08;2.05;;;1.45;;
19554;SDS011;9924;50.828;6.440;2023-05-10T10:41:02;2.00;;;1.35;;
19554;SDS011;9924;50.828;6.440;2023-05-10T10:47:21;2.08;;;1.30;;
19554;SDS011;9924;50.828;6.440;2023-05-10T10:50:08;1.85;;;1.00;;
19554;SDS011;9924;50.828;6.440;2023-05-10T10:52:54;3.30;;;1.02;;
19554;SDS011;9924;50.828;6.440;2023-05-10T10:56:10;1.40;;;1.02;;
19554;SDS011;9924;50.828;6.440;2023-05-10T10:58:58;1.10;;;0.98;;
19554;SDS011;9924;50.828;6.440;2023-05-10T11:01:44;2.03;;;1.45;;
19554;SDS011;9924;50.828;6.440;2023-05-10T11:04:42;1.15;;;1.02;;
19554;SDS011;9924;50.828;6.440;2023-05-10T11:07:30;1.90;;;1.30;;
19554;SDS011;9924;50.828;6.440;2023-05-10T11:10:19;2.35;;;1.50;;
19554;SDS011;9924;50.828;6.440;2023-05-10T11:13:09;2.13;;;1.58;;
19554;SDS011;9924;50.828;6.440;2023-05-10T11:15:55;1.73;;;1.50;;
19554;SDS011;9924;50.828;6.440;2023-05-10T11:19:02;1.60;;;1.40;;
19554;SDS011;9924;50.828;6.440;2023-05-10T11:22:35;2.08;;;1.35;;
19554;SDS011;9924;50.828;6.440;2023-05-10T11:24:57;1.63;;;1.30;;
19554;SDS011;9924;50.828;6.440;2023-05-10T11:27:43;1.40;;;1.30;;
19554;SDS011;9924;50.828;6.440;2023-05-10T11:30:28;2.03;;;1.60;;
19554;SDS011;9924;50.828;6.440;2023-05-10T11:33:16;3.45;;;1.58;;
19554;SDS011;9924;50.828;6.440;2023-05-10T11:36:03;1.30;;;1.20;;
19554;SDS011;9924;50.828;6.440;2023-05-10T11:38:55;2.55;;;1.20;;
19554;SDS011;9924;50.828;6.440;2023-05-10T11:41:40;2.20;;;1.05;;
19554;SDS011;9924;50.828;6.440;2023-05-10T11:44:32;1.80;;;1.40;;
19554;SDS011;9924;50.828;6.440;2023-05-10T11:47:18;3.10;;;1.40;;
19554;SDS011;9924;50.828;6.440;2023-05-10T11:50:02;1.67;;;1.00;;
19554;SDS011;9924;50.828;6.440;2023-05-10T11:52:54;1.88;;;1.10;;
19554;SDS011;9924;50.828;6.440;2023-05-10T11:55:40;1.63;;;1.35;;
19554;SDS011;9924;50.828;6.440;2023-05-10T11:58:25;2.90;;;1.50;;
19554;SDS011;9924;50.828;6.440;2023-05-10T12:01:10;2.10;;;1.20;;
19554;SDS011;9924;50.828;6.440;2023-05-10T12:03:55;2.17;;;1.30;;
19554;SDS011;9924;50.828;6.440;2023-05-10T12:06:45;2.20;;;1.20;;
19554;SDS011;9924;50.828;6.440;2023-05-10T12:09:30;1.85;;;0.90;;
19554;SDS011;9924;50.828;6.440;2023-05-10T12:12:18;0.60;;;0.60;;
19554;SDS011;9924;50.828;6.440;2023-05-10T12:15:02;1.00;;;0.70;;
19554;SDS011;9924;50.828;6.440;2023-05-10T12:17:48;1.60;;;1.00;;
19554;SDS011;9924;50.828;6.440;2023-05-10T12:20:33;3.92;;;1.10;;
19554;SDS011;9924;50.828;6.440;2023-05-10T12:23:18;2.38;;;1.00;;
19554;SDS011;9924;50.828;6.440;2023-05-10T12:26:05;1.40;;;1.08;;
19554;SDS011;9924;50.828;6.440;2023-05-10T12:28:49;1.83;;;1.00;;
19554;SDS011;9924;50.828;6.440;2023-05-10T12:31:48;2.83;;;1.60;;
19554;SDS011;9924;50.828;6.440;2023-05-10T12:34:40;1.67;;;1.58;;
19554;SDS011;9924;50.828;6.440;2023-05-10T12:37:27;3.70;;;1.60;;
19554;SDS011;9924;50.828;6.440;2023-05-10T12:40:12;2.45;;;1.50;;
19554;SDS011;9924;50.828;6.440;2023-05-10T12:42:57;2.33;;;1.80;;
19554;SDS011;9924;50.828;6.440;2023-05-10T12:45:41;1.85;;;1.60;;
19554;SDS011;9924;50.828;6.440;2023-05-10T12:48:26;1.63;;;1.50;;
19554;SDS011;9924;50.828;6.440;2023-05-10T12:51:12;1.88;;;1.63;;
19554;SDS011;9924;50.828;6.440;2023-05-10T12:54:02;3.70;;;2.30;;
19554;SDS011;9924;50.828;6.440;2023-05-10T12:56:47;3.42;;;2.10;;
19554;SDS011;9924;50.828;6.440;2023-05-10T12:59:31;2.67;;;2.17;;
19554;SDS011;9924;50.828;6.440;2023-05-10T13:02:16;3.20;;;1.90;;
19554;SDS011;9924;50.828;6.440;2023-05-10T13:05:03;3.13;;;2.05;;
19554;SDS011;9924;50.828;6.440;2023-05-10T13:07:52;2.03;;;1.83;;
19554;SDS011;9924;50.828;6.440;2023-05-10T13:10:36;2.22;;;1.50;;
19554;SDS011;9924;50.828;6.440;2023-05-10T13:13:21;4.45;;;1.65;;
19554;SDS011;9924;50.828;6.440;2023-05-10T13:16:05;4.03;;;2.00;;
19554;SDS011;9924;50.828;6.440;2023-05-10T13:18:50;3.67;;;2.00;;
19554;SDS011;9924;50.828;6.440;2023-05-10T13:21:35;2.83;;;2.05;;
19554;SDS011;9924;50.828;6.440;2023-05-10T13:24:20;2.70;;;2.10;;
19554;SDS011;9924;50.828;6.440;2023-05-10T13:27:06;3.05;;;2.00;;
19554;SDS011;9924;50.828;6.440;2023-05-10T13:29:50;3.38;;;1.83;;
19554;SDS011;9924;50.828;6.440;2023-05-10T13:32:35;1.98;;;1.70;;
19554;SDS011;9924;50.828;6.440;2023-05-10T13:35:21;3.63;;;2.50;;
19554;SDS011;9924;50.828;6.440;2023-05-10T13:38:05;2.00;;;1.70;;
19554;SDS011;9924;50.828;6.440;2023-05-10T13:40:51;4.53;;;2.85;;
19554;SDS011;9924;50.828;6.440;2023-05-10T13:43:36;3.60;;;2.60;;
19554;SDS011;9924;50.828;6.440;2023-05-10T13:46:21;4.60;;;2.85;;
19554;SDS011;9924;50.828;6.440;2023-05-10T13:49:05;3.75;;;2.75;;
19554;SDS011;9924;50.828;6.440;2023-05-10T13:51:51;4.47;;;2.72;;
19554;SDS011;9924;50.828;6.440;2023-05-10T13:54:36;6.57;;;2.90;;
19554;SDS011;9924;50.828;6.440;2023-05-10T13:57:22;3.60;;;2.53;;
19554;SDS011;9924;50.828;6.440;2023-05-10T14:00:08;3.53;;;2.80;;
19554;SDS011;9924;50.828;6.440;2023-05-10T14:02:53;3.17;;;2.38;;
19554;SDS011;9924;50.828;6.440;2023-05-10T14:05:41;5.32;;;2.80;;
19554;SDS011;9924;50.828;6.440;2023-05-10T14:08:26;5.47;;;2.80;;
19554;SDS011;9924;50.828;6.440;2023-05-10T14:11:10;3.38;;;1.92;;
19554;SDS011;9924;50.828;6.440;2023-05-10T14:13:55;3.40;;;2.38;;
19554;SDS011;9924;50.828;6.440;2023-05-10T14:16:41;3.03;;;2.17;;
19554;SDS011;9924;50.828;6.440;2023-05-10T14:19:27;3.28;;;2.10;;
19554;SDS011;9924;50.828;6.440;2023-05-10T14:22:14;3.65;;;2.35;;
19554;SDS011;9924;50.828;6.440;2023-05-10T14:24:58;4.35;;;3.00;;
19554;SDS011;9924;50.828;6.440;2023-05-10T14:27:44;2.63;;;2.22;;
19554;SDS011;9924;50.828;6.440;2023-05-10T14:30:30;5.05;;;3.70;;
19554;SDS011;9924;50.828;6.440;2023-05-10T14:33:16;4.15;;;2.97;;
19554;SDS011;9924;50.828;6.440;2023-05-10T14:36:01;7.43;;;3.83;;
19554;SDS011;9924;50.828;6.440;2023-05-10T14:38:47;6.88;;;3.72;;
19554;SDS011;9924;50.828;6.440;2023-05-10T14:41:31;5.15;;;3.08;;
19554;SDS011;9924;50.828;6.440;2023-05-10T14:44:16;21.15;;;9.73;;
19554;SDS011;9924;50.828;6.440;2023-05-10T14:47:01;29.27;;;13.88;;
19554;SDS011;9924;50.828;6.440;2023-05-10T14:49:46;17.80;;;8.73;;
19554;SDS011;9924;50.828;6.440;2023-05-10T14:52:30;16.08;;;8.10;;
19554;SDS011;9924;50.828;6.440;2023-05-10T14:55:15;22.20;;;10.30;;
19554;SDS011;9924;50.828;6.440;2023-05-10T14:58:01;25.27;;;11.32;;
19554;SDS011;9924;50.828;6.440;2023-05-10T15:00:46;11.27;;;5.25;;
19554;SDS011;9924;50.828;6.440;2023-05-10T15:03:31;24.13;;;9.77;;
19554;SDS011;9924;50.828;6.440;2023-05-10T15:06:16;11.57;;;5.70;;
19554;SDS011;9924;50.828;6.440;2023-05-10T15:09:01;5.10;;;3.90;;
19554;SDS011;9924;50.828;6.440;2023-05-10T15:11:50;3.35;;;2.95;;
19554;SDS011;9924;50.828;6.440;2023-05-10T15:14:34;3.42;;;2.65;;
19554;SDS011;9924;50.828;6.440;2023-05-10T15:17:22;4.43;;;2.50;;
19554;SDS011;9924;50.828;6.440;2023-05-10T15:20:07;2.83;;;2.28;;
19554;SDS011;9924;50.828;6.440;2023-05-10T15:22:52;3.15;;;2.28;;
19554;SDS011;9924;50.828;6.440;2023-05-10T15:25:37;2.75;;;1.83;;
19554;SDS011;9924;50.828;6.440;2023-05-10T15:28:22;3.80;;;1.52;;
19554;SDS011;9924;50.828;6.440;2023-05-10T15:31:07;3.08;;;1.40;;
19554;SDS011;9924;50.828;6.440;2023-05-10T15:33:59;1.30;;;1.20;;
19554;SDS011;9924;50.828;6.440;2023-05-10T15:36:44;1.80;;;1.17;;
19554;SDS011;9924;50.828;6.440;2023-05-10T15:39:29;2.45;;;1.52;;
19554;SDS011;9924;50.828;6.440;2023-05-10T15:42:14;1.92;;;1.35;;
19554;SDS011;9924;50.828;6.440;2023-05-10T15:44:59;3.03;;;1.30;;
19554;SDS011;9924;50.828;6.440;2023-05-10T15:47:45;2.25;;;1.38;;
19554;SDS011;9924;50.828;6.440;2023-05-10T15:50:29;2.20;;;1.00;;
19554;SDS011;9924;50.828;6.440;2023-05-10T15:53:14;1.15;;;1.05;;
19554;SDS011;9924;50.828;6.440;2023-05-10T15:55:59;1.40;;;1.00;;
19554;SDS011;9924;50.828;6.440;2023-05-10T15:58:44;1.63;;;1.40;;
19554;SDS011;9924;50.828;6.440;2023-05-10T16:01:28;1.48;;;1.17;;
19554;SDS011;9924;50.828;6.440;2023-05-10T16:04:15;1.58;;;1.10;;
19554;SDS011;9924;50.828;6.440;2023-05-10T16:06:59;1.40;;;1.10;;
19554;SDS011;9924;50.828;6.440;2023-05-10T16:09:44;1.00;;;0.90;;
19554;SDS011;9924;50.828;6.440;2023-05-10T16:12:29;1.77;;;0.90;;
19554;SDS011;9924;50.828;6.440;2023-05-10T16:15:14;0.75;;;0.73;;
19554;SDS011;9924;50.828;6.440;2023-05-10T16:17:59;1.48;;;1.08;;
19554;SDS011;9924;50.828;6.440;2023-05-10T16:20:44;1.38;;;1.10;;
19554;SDS011;9924;50.828;6.440;2023-05-10T16:23:29;1.17;;;0.95;;
19554;SDS011;9924;50.828;6.440;2023-05-10T16:26:14;3.33;;;1.25;;
19554;SDS011;9924;50.828;6.440;2023-05-10T16:28:59;1.95;;;0.90;;
19554;SDS011;9924;50.828;6.440;2023-05-10T16:31:44;1.77;;;1.38;;
19554;SDS011;9924;50.828;6.440;2023-05-10T16:34:29;4.43;;;1.30;;
19554;SDS011;9924;50.828;6.440;2023-05-10T16:37:13;1.17;;;1.02;;
19554;SDS011;9924;50.828;6.440;2023-05-10T16:39:58;3.30;;;1.88;;
19554;SDS011;9924;50.828;6.440;2023-05-10T16:42:43;4.05;;;2.25;;
19554;SDS011;9924;50.828;6.440;2023-05-10T16:45:29;3.10;;;2.20;;
19554;SDS011;9924;50.828;6.440;2023-05-10T16:48:14;2.38;;;1.92;;
19554;SDS011;9924;50.828;6.440;2023-05-10T16:50:59;12.18;;;6.20;;
19554;SDS011;9924;50.828;6.440;2023-05-10T16:53:47;11.43;;;5.95;;
19554;SDS011;9924;50.828;6.440;2023-05-10T16:56:31;2.97;;;2.20;;
19554;SDS011;9924;50.828;6.440;2023-05-10T16:59:16;4.18;;;2.25;;
19554;SDS011;9924;50.828;6.440;2023-05-10T17:02:01;5.72;;;1.90;;
19554;SDS011;9924;50.828;6.440;2023-05-10T17:04:46;4.65;;;1.80;;
19554;SDS011;9924;50.828;6.440;2023-05-10T17:07:31;3.90;;;1.77;;
19554;SDS011;9924;50.828;6.440;2023-05-10T17:10:15;2.55;;;2.13;;
19554;SDS011;9924;50.828;6.440;2023-05-10T17:13:00;2.25;;;1.70;;